logo dgac
Martes 16 de Julio del 2019
Buscar por aerodromo o helipuerto
Ingrese nombre de aeródromo, localidad o designador OACI:
METAR del 16-07-2019 a las 22:00 UTC
METAR SCTB 162200Z 00000KT 4000 HZ NSC 17/02 Q1019
Visibilidad: 4000 metros
Bruma
Sin nubes bajo los 5000 pies o bajo del MSA (Mínimo de Seguridad del Aeródromo)
Temperatura: 17 °C
Rocío: 2 °C
Humedad_relativa: 36%
Presión: 1019 hPa
METAR del 16-07-2019 a las 21:00 UTC
METAR SCTB 162100Z 27003KT 5000 HZ NSC 20/01 Q1019
Viento: dirección 270 grados, velocidad 3 nudos
Visibilidad: 5000 metros
Bruma
Sin nubes bajo los 5000 pies o bajo del MSA (Mínimo de Seguridad del Aeródromo)
Temperatura: 20 °C
Rocío: 1 °C
Humedad_relativa: 28%
Presión: 1019 hPa
METAR del 16-07-2019 a las 21:00 UTC
METAR SCTB 162100Z 27003KT 5000 HZ NSC 20/01 Q1019
Viento: dirección 270 grados, velocidad 3 nudos
Visibilidad: 5000 metros
Bruma
Sin nubes bajo los 5000 pies o bajo del MSA (Mínimo de Seguridad del Aeródromo)
Temperatura: 20 °C
Rocío: 1 °C
Humedad_relativa: 28%
Presión: 1019 hPa
METAR del 16-07-2019 a las 20:00 UTC
METAR SCTB 162000Z 18002KT 4000 HZ NSC 21/02 Q1019
Viento: dirección 180 grados, velocidad 2 nudos
Visibilidad: 4000 metros
Bruma
Sin nubes bajo los 5000 pies o bajo del MSA (Mínimo de Seguridad del Aeródromo)
Temperatura: 21 °C
Rocío: 2 °C
Humedad_relativa: 28%
Presión: 1019 hPa
METAR del 16-07-2019 a las 20:00 UTC
METAR SCTB 162000Z 18002KT 4000 HZ NSC 21/02 Q1019
Viento: dirección 180 grados, velocidad 2 nudos
Visibilidad: 4000 metros
Bruma
Sin nubes bajo los 5000 pies o bajo del MSA (Mínimo de Seguridad del Aeródromo)
Temperatura: 21 °C
Rocío: 2 °C
Humedad_relativa: 28%
Presión: 1019 hPa
METAR del 16-07-2019 a las 19:00 UTC
METAR SCTB 161900Z 00000KT 5000 HZ NSC 20/02 Q1019
Visibilidad: 5000 metros
Bruma
Sin nubes bajo los 5000 pies o bajo del MSA (Mínimo de Seguridad del Aeródromo)
Temperatura: 20 °C
Rocío: 2 °C
Humedad_relativa: 30%
Presión: 1019 hPa
METAR del 16-07-2019 a las 19:00 UTC
METAR SCTB 161900Z 00000KT 5000 HZ NSC 20/02 Q1019
Visibilidad: 5000 metros
Bruma
Sin nubes bajo los 5000 pies o bajo del MSA (Mínimo de Seguridad del Aeródromo)
Temperatura: 20 °C
Rocío: 2 °C
Humedad_relativa: 30%
Presión: 1019 hPa
METAR del 16-07-2019 a las 18:00 UTC
METAR SCTB 161800Z 11001KT 5000 HZ NSC 19/02 Q1019
Viento: dirección 110 grados, velocidad 1 nudos
Visibilidad: 5000 metros
Bruma
Sin nubes bajo los 5000 pies o bajo del MSA (Mínimo de Seguridad del Aeródromo)
Temperatura: 19 °C
Rocío: 2 °C
Humedad_relativa: 32%
Presión: 1019 hPa
METAR del 16-07-2019 a las 17:00 UTC
METAR SCTB 161700Z 21005KT 6000 NSC 18/01 Q1019
Viento: dirección 210 grados, velocidad 5 nudos
Visibilidad: 6000 metros
Sin nubes bajo los 5000 pies o bajo del MSA (Mínimo de Seguridad del Aeródromo)
Temperatura: 18 °C
Rocío: 1 °C
Humedad_relativa: 32%
Presión: 1019 hPa
METAR del 16-07-2019 a las 16:00 UTC
METAR SCTB 161600Z 24005KT 8000 NSC 17/00 Q1020
Viento: dirección 240 grados, velocidad 5 nudos
Visibilidad: 8000 metros
Sin nubes bajo los 5000 pies o bajo del MSA (Mínimo de Seguridad del Aeródromo)
Temperatura: 17 °C
Rocío: 0 °C
Humedad_relativa: 32%
Presión: 1020 hPa